sensor_id;sensor_type;location;lat;lon;timestamp;pressure;altitude;pressure_sealevel;temperature;humidity
8894;BME280;4483;48.622;9.230;2022-12-29T00:01:52;97494.34;;;3.81;100.00
8894;BME280;4483;48.622;9.230;2022-12-29T00:04:20;97506.84;;;3.95;100.00
8894;BME280;4483;48.622;9.230;2022-12-29T00:06:48;97513.56;;;3.97;100.00
8894;BME280;4483;48.622;9.230;2022-12-29T00:09:16;97502.56;;;3.97;100.00
8894;BME280;4483;48.622;9.230;2022-12-29T00:11:43;97498.22;;;4.00;100.00
8894;BME280;4483;48.622;9.230;2022-12-29T00:14:10;97498.25;;;3.99;100.00
8894;BME280;4483;48.622;9.230;2022-12-29T00:16:55;97501.50;;;4.05;100.00
8894;BME280;4483;48.622;9.230;2022-12-29T00:19:22;97488.75;;;4.07;100.00
8894;BME280;4483;48.622;9.230;2022-12-29T00:22:10;97486.91;;;4.12;100.00
8894;BME280;4483;48.622;9.230;2022-12-29T00:24:54;97475.91;;;4.12;100.00
8894;BME280;4483;48.622;9.230;2022-12-29T00:27:38;97470.78;;;4.13;100.00
8894;BME280;4483;48.622;9.230;2022-12-29T00:30:23;97468.16;;;4.16;100.00
8894;BME280;4483;48.622;9.230;2022-12-29T00:33:09;97445.50;;;4.02;100.00
8894;BME280;4483;48.622;9.230;2022-12-29T00:35:57;97457.09;;;4.17;100.00
8894;BME280;4483;48.622;9.230;2022-12-29T00:38:26;97466.38;;;4.20;100.00
8894;BME280;4483;48.622;9.230;2022-12-29T00:41:11;97456.22;;;4.18;100.00
8894;BME280;4483;48.622;9.230;2022-12-29T00:43:55;97457.00;;;4.20;100.00
8894;BME280;4483;48.622;9.230;2022-12-29T00:46:31;97460.47;;;4.19;100.00
8894;BME280;4483;48.622;9.230;2022-12-29T00:48:58;97459.66;;;4.17;100.00
8894;BME280;4483;48.622;9.230;2022-12-29T00:51:42;97453.69;;;4.17;100.00
8894;BME280;4483;48.622;9.230;2022-12-29T00:54:10;97462.16;;;4.19;100.00
8894;BME280;4483;48.622;9.230;2022-12-29T00:56:37;97454.50;;;4.19;100.00
8894;BME280;4483;48.622;9.230;2022-12-29T00:59:05;97459.50;;;4.23;100.00
8894;BME280;4483;48.622;9.230;2022-12-29T01:01:33;97458.59;;;4.26;100.00
8894;BME280;4483;48.622;9.230;2022-12-29T01:03:59;97444.06;;;4.29;100.00
8894;BME280;4483;48.622;9.230;2022-12-29T01:06:26;97452.47;;;4.33;100.00
8894;BME280;4483;48.622;9.230;2022-12-29T01:08:53;97452.53;;;4.31;100.00
8894;BME280;4483;48.622;9.230;2022-12-29T01:11:35;97448.22;;;4.33;100.00
8894;BME280;4483;48.622;9.230;2022-12-29T01:14:02;97443.97;;;4.34;100.00
8894;BME280;4483;48.622;9.230;2022-12-29T01:16:29;97442.28;;;4.33;100.00
8894;BME280;4483;48.622;9.230;2022-12-29T01:18:56;97430.59;;;4.24;100.00
8894;BME280;4483;48.622;9.230;2022-12-29T01:21:23;97453.16;;;4.41;100.00
8894;BME280;4483;48.622;9.230;2022-12-29T01:23:50;97459.13;;;4.41;100.00
8894;BME280;4483;48.622;9.230;2022-12-29T01:26:17;97460.69;;;4.45;100.00
8894;BME280;4483;48.622;9.230;2022-12-29T01:28:46;97464.06;;;4.47;100.00
8894;BME280;4483;48.622;9.230;2022-12-29T01:31:14;97458.91;;;4.49;100.00
8894;BME280;4483;48.622;9.230;2022-12-29T01:33:41;97467.38;;;4.52;100.00
8894;BME280;4483;48.622;9.230;2022-12-29T01:36:10;97471.50;;;4.56;100.00
8894;BME280;4483;48.622;9.230;2022-12-29T01:38:38;97462.09;;;4.58;100.00
8894;BME280;4483;48.622;9.230;2022-12-29T01:41:06;97475.59;;;4.63;100.00
8894;BME280;4483;48.622;9.230;2022-12-29T01:43:42;97465.31;;;4.66;100.00
8894;BME280;4483;48.622;9.230;2022-12-29T01:46:18;97466.94;;;4.69;100.00
8894;BME280;4483;48.622;9.230;2022-12-29T01:48:52;97475.41;;;4.72;100.00
8894;BME280;4483;48.622;9.230;2022-12-29T01:51:21;97461.75;;;4.73;100.00
8894;BME280;4483;48.622;9.230;2022-12-29T01:53:50;97463.38;;;4.77;100.00
8894;BME280;4483;48.622;9.230;2022-12-29T01:56:19;97464.22;;;4.78;100.00
8894;BME280;4483;48.622;9.230;2022-12-29T01:58:49;97459.88;;;4.80;100.00
8894;BME280;4483;48.622;9.230;2022-12-29T02:01:19;97454.75;;;4.81;100.00
8894;BME280;4483;48.622;9.230;2022-12-29T02:03:48;97461.44;;;4.85;100.00
8894;BME280;4483;48.622;9.230;2022-12-29T02:06:18;97463.94;;;4.88;100.00
8894;BME280;4483;48.622;9.230;2022-12-29T02:08:47;97456.19;;;4.91;100.00
8894;BME280;4483;48.622;9.230;2022-12-29T02:11:16;97439.22;;;4.89;100.00
8894;BME280;4483;48.622;9.230;2022-12-29T02:13:42;97449.25;;;4.96;100.00
8894;BME280;4483;48.622;9.230;2022-12-29T02:16:18;97443.28;;;4.97;100.00
8894;BME280;4483;48.622;9.230;2022-12-29T02:18:55;97442.41;;;4.98;100.00
8894;BME280;4483;48.622;9.230;2022-12-29T02:22:00;97443.91;;;5.05;100.00
8894;BME280;4483;48.622;9.230;2022-12-29T02:31:00;97456.50;;;5.13;100.00
8894;BME280;4483;48.622;9.230;2022-12-29T02:33:38;97440.28;;;5.16;100.00
8894;BME280;4483;48.622;9.230;2022-12-29T02:36:14;97438.44;;;5.21;100.00
8894;BME280;4483;48.622;9.230;2022-12-29T02:38:56;97440.94;;;5.22;100.00
8894;BME280;4483;48.622;9.230;2022-12-29T02:41:31;97440.84;;;5.27;100.00
8894;BME280;4483;48.622;9.230;2022-12-29T02:44:04;97435.69;;;5.28;100.00
8894;BME280;4483;48.622;9.230;2022-12-29T02:46:37;97428.47;;;5.42;100.00
8894;BME280;4483;48.622;9.230;2022-12-29T02:49:11;97432.34;;;5.57;100.00
8894;BME280;4483;48.622;9.230;2022-12-29T02:51:49;97425.16;;;5.71;100.00
8894;BME280;4483;48.622;9.230;2022-12-29T02:54:18;97418.19;;;5.76;100.00
8894;BME280;4483;48.622;9.230;2022-12-29T02:57:03;97420.56;;;5.83;100.00
8894;BME280;4483;48.622;9.230;2022-12-29T02:59:29;97416.09;;;5.90;100.00
8894;BME280;4483;48.622;9.230;2022-12-29T03:02:09;97413.16;;;6.03;100.00
8894;BME280;4483;48.622;9.230;2022-12-29T03:05:04;97428.47;;;6.33;100.00
8894;BME280;4483;48.622;9.230;2022-12-29T03:07:40;97420.88;;;6.57;100.00
8894;BME280;4483;48.622;9.230;2022-12-29T03:10:28;97420.19;;;6.78;100.00
8894;BME280;4483;48.622;9.230;2022-12-29T03:13:02;97419.69;;;6.93;100.00
8894;BME280;4483;48.622;9.230;2022-12-29T03:15:55;97415.00;;;7.06;100.00
8894;BME280;4483;48.622;9.230;2022-12-29T03:18:41;97418.97;;;7.14;100.00
8894;BME280;4483;48.622;9.230;2022-12-29T03:21:12;97416.69;;;7.32;100.00
8894;BME280;4483;48.622;9.230;2022-12-29T03:23:42;97414.06;;;7.58;100.00
8894;BME280;4483;48.622;9.230;2022-12-29T03:26:14;97407.28;;;7.78;99.57
8894;BME280;4483;48.622;9.230;2022-12-29T03:28:46;97396.59;;;7.90;99.20
8894;BME280;4483;48.622;9.230;2022-12-29T03:31:15;97399.66;;;8.00;98.01
8894;BME280;4483;48.622;9.230;2022-12-29T03:33:45;97398.28;;;8.13;97.16
8894;BME280;4483;48.622;9.230;2022-12-29T03:36:17;97397.88;;;8.25;97.06
8894;BME280;4483;48.622;9.230;2022-12-29T03:38:49;97394.16;;;8.32;95.22
8894;BME280;4483;48.622;9.230;2022-12-29T03:41:20;97393.28;;;8.33;96.11
8894;BME280;4483;48.622;9.230;2022-12-29T03:43:49;97384.75;;;8.33;94.66
8894;BME280;4483;48.622;9.230;2022-12-29T03:46:16;97381.94;;;8.39;92.41
8894;BME280;4483;48.622;9.230;2022-12-29T03:48:44;97383.09;;;8.53;90.44
8894;BME280;4483;48.622;9.230;2022-12-29T03:51:11;97380.16;;;8.62;91.09
8894;BME280;4483;48.622;9.230;2022-12-29T03:53:37;97374.94;;;8.64;90.67
8894;BME280;4483;48.622;9.230;2022-12-29T03:56:05;97372.16;;;8.68;89.59
8894;BME280;4483;48.622;9.230;2022-12-29T03:58:31;97358.06;;;8.78;88.04
8894;BME280;4483;48.622;9.230;2022-12-29T04:00:58;97367.84;;;8.90;85.34
8894;BME280;4483;48.622;9.230;2022-12-29T04:03:25;97365.66;;;9.01;85.31
8894;BME280;4483;48.622;9.230;2022-12-29T04:05:53;97355.97;;;9.08;84.42
8894;BME280;4483;48.622;9.230;2022-12-29T04:08:20;97352.41;;;9.10;84.51
8894;BME280;4483;48.622;9.230;2022-12-29T04:10:47;97358.22;;;9.16;83.85
8894;BME280;4483;48.622;9.230;2022-12-29T04:13:14;97357.94;;;9.22;82.86
8894;BME280;4483;48.622;9.230;2022-12-29T04:15:42;97356.78;;;9.29;81.30
8894;BME280;4483;48.622;9.230;2022-12-29T04:18:09;97360.03;;;9.32;81.83
8894;BME280;4483;48.622;9.230;2022-12-29T04:20:36;97370.22;;;9.35;80.82
8894;BME280;4483;48.622;9.230;2022-12-29T04:23:32;97363.34;;;9.36;81.63
8894;BME280;4483;48.622;9.230;2022-12-29T04:25:59;97368.53;;;9.34;81.23
8894;BME280;4483;48.622;9.230;2022-12-29T04:28:27;97371.16;;;9.33;80.94
8894;BME280;4483;48.622;9.230;2022-12-29T04:30:54;97384.78;;;9.35;81.05
8894;BME280;4483;48.622;9.230;2022-12-29T04:33:21;97384.22;;;9.28;80.73
8894;BME280;4483;48.622;9.230;2022-12-29T04:35:48;97389.81;;;9.18;80.94
8894;BME280;4483;48.622;9.230;2022-12-29T04:38:15;97396.03;;;9.12;81.09
8894;BME280;4483;48.622;9.230;2022-12-29T04:40:44;97385.38;;;9.01;81.39
8894;BME280;4483;48.622;9.230;2022-12-29T04:43:11;97385.88;;;8.89;81.11
8894;BME280;4483;48.622;9.230;2022-12-29T04:45:38;97378.63;;;8.78;82.53
8894;BME280;4483;48.622;9.230;2022-12-29T04:48:05;97372.56;;;8.79;82.33
8894;BME280;4483;48.622;9.230;2022-12-29T04:50:32;97374.97;;;8.84;81.98
8894;BME280;4483;48.622;9.230;2022-12-29T04:52:59;97372.19;;;8.88;81.37
8894;BME280;4483;48.622;9.230;2022-12-29T04:55:26;97376.63;;;8.85;81.94
8894;BME280;4483;48.622;9.230;2022-12-29T04:57:54;97382.84;;;8.79;82.15
8894;BME280;4483;48.622;9.230;2022-12-29T05:00:21;97388.28;;;8.72;82.18
8894;BME280;4483;48.622;9.230;2022-12-29T05:02:47;97386.00;;;8.66;82.36
8894;BME280;4483;48.622;9.230;2022-12-29T05:05:15;97390.44;;;8.61;82.46
8894;BME280;4483;48.622;9.230;2022-12-29T05:07:42;97387.47;;;8.50;82.15
8894;BME280;4483;48.622;9.230;2022-12-29T05:10:09;97390.38;;;8.42;82.67
8894;BME280;4483;48.622;9.230;2022-12-29T05:12:37;97395.78;;;8.35;82.75
8894;BME280;4483;48.622;9.230;2022-12-29T05:15:08;97403.66;;;8.30;83.07
8894;BME280;4483;48.622;9.230;2022-12-29T05:17:35;97400.44;;;8.25;83.40
8894;BME280;4483;48.622;9.230;2022-12-29T05:20:03;97397.03;;;8.25;84.12
8894;BME280;4483;48.622;9.230;2022-12-29T05:22:29;97395.34;;;8.24;83.61
8894;BME280;4483;48.622;9.230;2022-12-29T05:24:56;97381.66;;;8.23;83.98
8894;BME280;4483;48.622;9.230;2022-12-29T05:27:23;97387.13;;;8.37;84.76
8894;BME280;4483;48.622;9.230;2022-12-29T05:29:50;97385.97;;;8.44;84.25
8894;BME280;4483;48.622;9.230;2022-12-29T05:32:18;97395.25;;;8.48;83.56
8894;BME280;4483;48.622;9.230;2022-12-29T05:34:44;97394.09;;;8.55;83.27
8894;BME280;4483;48.622;9.230;2022-12-29T05:37:11;97393.09;;;8.59;83.51
8894;BME280;4483;48.622;9.230;2022-12-29T05:39:38;97389.28;;;8.69;82.80
8894;BME280;4483;48.622;9.230;2022-12-29T05:42:05;97395.03;;;8.74;82.43
8894;BME280;4483;48.622;9.230;2022-12-29T05:44:31;97386.91;;;8.85;82.27
8894;BME280;4483;48.622;9.230;2022-12-29T05:46:58;97388.44;;;8.89;82.36
8894;BME280;4483;48.622;9.230;2022-12-29T05:49:26;97390.06;;;8.91;81.61
8894;BME280;4483;48.622;9.230;2022-12-29T05:51:53;97383.63;;;9.01;81.60
8894;BME280;4483;48.622;9.230;2022-12-29T05:54:19;97386.97;;;9.24;79.76
8894;BME280;4483;48.622;9.230;2022-12-29T05:56:46;97386.84;;;9.47;77.91
8894;BME280;4483;48.622;9.230;2022-12-29T05:59:13;97383.72;;;9.59;78.01
8894;BME280;4483;48.622;9.230;2022-12-29T06:01:40;97388.47;;;9.68;77.07
8894;BME280;4483;48.622;9.230;2022-12-29T06:04:06;97392.59;;;9.72;77.07
8894;BME280;4483;48.622;9.230;2022-12-29T06:06:34;97384.47;;;9.81;76.74
8894;BME280;4483;48.622;9.230;2022-12-29T06:09:01;97377.09;;;9.92;76.09
8894;BME280;4483;48.622;9.230;2022-12-29T06:11:28;97370.34;;;10.08;74.86
8894;BME280;4483;48.622;9.230;2022-12-29T06:13:55;97367.53;;;10.14;75.09
8894;BME280;4483;48.622;9.230;2022-12-29T06:16:21;97365.72;;;10.16;75.04
8894;BME280;4483;48.622;9.230;2022-12-29T06:18:48;97354.34;;;10.20;74.94
8894;BME280;4483;48.622;9.230;2022-12-29T06:21:15;97352.06;;;10.33;73.59
8894;BME280;4483;48.622;9.230;2022-12-29T06:23:43;97345.00;;;10.36;73.07
8894;BME280;4483;48.622;9.230;2022-12-29T06:26:10;97345.63;;;10.41;73.12
8894;BME280;4483;48.622;9.230;2022-12-29T06:28:36;97338.50;;;10.46;72.60
8894;BME280;4483;48.622;9.230;2022-12-29T06:31:03;97341.84;;;10.48;72.47
8894;BME280;4483;48.622;9.230;2022-12-29T06:33:30;97342.41;;;10.55;72.07
8894;BME280;4483;48.622;9.230;2022-12-29T06:35:57;97346.84;;;10.51;72.85
8894;BME280;4483;48.622;9.230;2022-12-29T06:38:23;97359.09;;;10.46;73.04
8894;BME280;4483;48.622;9.230;2022-12-29T06:40:51;97357.38;;;10.47;73.23
8894;BME280;4483;48.622;9.230;2022-12-29T06:43:18;97364.25;;;10.46;73.29
8894;BME280;4483;48.622;9.230;2022-12-29T06:45:45;97360.78;;;10.47;73.27
8894;BME280;4483;48.622;9.230;2022-12-29T06:48:12;97365.50;;;10.56;73.27
8894;BME280;4483;48.622;9.230;2022-12-29T06:50:39;97360.34;;;10.56;72.74
8894;BME280;4483;48.622;9.230;2022-12-29T06:53:05;97362.09;;;10.56;72.97
8894;BME280;4483;48.622;9.230;2022-12-29T06:55:32;97367.25;;;10.56;73.06
8894;BME280;4483;48.622;9.230;2022-12-29T06:58:00;97357.91;;;10.53;73.07
8894;BME280;4483;48.622;9.230;2022-12-29T07:00:27;97351.19;;;10.51;73.80
8894;BME280;4483;48.622;9.230;2022-12-29T07:02:54;97367.75;;;10.45;74.05
8894;BME280;4483;48.622;9.230;2022-12-29T07:05:23;97359.94;;;10.47;74.22
8894;BME280;4483;48.622;9.230;2022-12-29T07:07:50;97359.03;;;10.48;73.48
8894;BME280;4483;48.622;9.230;2022-12-29T07:10:17;97343.53;;;10.49;73.68
8894;BME280;4483;48.622;9.230;2022-12-29T07:12:44;97344.13;;;10.54;73.87
8894;BME280;4483;48.622;9.230;2022-12-29T07:15:12;97368.53;;;10.64;74.13
8894;BME280;4483;48.622;9.230;2022-12-29T07:17:39;97358.38;;;10.61;73.74
8894;BME280;4483;48.622;9.230;2022-12-29T07:20:07;97367.56;;;10.67;74.15
8894;BME280;4483;48.622;9.230;2022-12-29T07:22:34;97350.81;;;10.75;73.72
8894;BME280;4483;48.622;9.230;2022-12-29T07:25:01;97358.69;;;10.72;73.76
8894;BME280;4483;48.622;9.230;2022-12-29T07:27:28;97356.28;;;10.69;73.49
8894;BME280;4483;48.622;9.230;2022-12-29T07:29:55;97356.59;;;10.80;73.48
8894;BME280;4483;48.622;9.230;2022-12-29T07:32:23;97357.03;;;10.88;73.16
8894;BME280;4483;48.622;9.230;2022-12-29T07:34:50;97358.31;;;10.97;72.61
8894;BME280;4483;48.622;9.230;2022-12-29T07:37:17;97351.56;;;10.94;72.59
8894;BME280;4483;48.622;9.230;2022-12-29T07:39:44;97364.31;;;10.97;73.18
8894;BME280;4483;48.622;9.230;2022-12-29T07:42:11;97370.50;;;10.93;73.10
8894;BME280;4483;48.622;9.230;2022-12-29T07:44:38;97375.81;;;10.90;73.34
8894;BME280;4483;48.622;9.230;2022-12-29T07:47:04;97370.47;;;10.95;73.19
8894;BME280;4483;48.622;9.230;2022-12-29T07:49:32;97360.06;;;10.96;73.19
8894;BME280;4483;48.622;9.230;2022-12-29T07:51:59;97370.38;;;10.96;73.18
8894;BME280;4483;48.622;9.230;2022-12-29T07:54:26;97378.63;;;11.03;72.79
8894;BME280;4483;48.622;9.230;2022-12-29T07:56:52;97387.28;;;11.02;73.49
8894;BME280;4483;48.622;9.230;2022-12-29T07:59:19;97380.53;;;10.99;72.93
8894;BME280;4483;48.622;9.230;2022-12-29T08:01:47;97385.22;;;11.08;73.03
8894;BME280;4483;48.622;9.230;2022-12-29T08:04:14;97394.88;;;11.05;73.57
8894;BME280;4483;48.622;9.230;2022-12-29T08:06:42;97376.13;;;11.19;72.89
8894;BME280;4483;48.622;9.230;2022-12-29T08:09:10;97383.63;;;11.23;73.16
8894;BME280;4483;48.622;9.230;2022-12-29T08:11:37;97389.84;;;11.36;72.94
8894;BME280;4483;48.622;9.230;2022-12-29T08:14:04;97392.34;;;11.38;72.51
8894;BME280;4483;48.622;9.230;2022-12-29T08:16:31;97393.84;;;11.42;72.47
8894;BME280;4483;48.622;9.230;2022-12-29T08:18:57;97393.00;;;11.41;72.43
8894;BME280;4483;48.622;9.230;2022-12-29T08:21:24;97392.94;;;11.43;72.46
8894;BME280;4483;48.622;9.230;2022-12-29T08:23:52;97398.72;;;11.48;72.29
8894;BME280;4483;48.622;9.230;2022-12-29T08:26:19;97409.09;;;11.46;72.43
8894;BME280;4483;48.622;9.230;2022-12-29T08:28:46;97414.41;;;11.43;72.87
8894;BME280;4483;48.622;9.230;2022-12-29T08:31:13;97410.53;;;11.52;72.51
8894;BME280;4483;48.622;9.230;2022-12-29T08:33:39;97396.63;;;11.54;71.99
8894;BME280;4483;48.622;9.230;2022-12-29T08:36:07;97400.72;;;11.58;72.11
8894;BME280;4483;48.622;9.230;2022-12-29T08:38:34;97411.91;;;11.59;72.18
8894;BME280;4483;48.622;9.230;2022-12-29T08:41:02;97403.22;;;11.60;71.99
8894;BME280;4483;48.622;9.230;2022-12-29T08:43:29;97382.66;;;11.58;70.52
8894;BME280;4483;48.622;9.230;2022-12-29T08:45:57;97406.97;;;11.71;71.33
8894;BME280;4483;48.622;9.230;2022-12-29T08:48:23;97406.88;;;11.73;71.13
8894;BME280;4483;48.622;9.230;2022-12-29T08:50:50;97400.97;;;11.71;71.09
8894;BME280;4483;48.622;9.230;2022-12-29T08:53:18;97399.13;;;11.73;71.06
8894;BME280;4483;48.622;9.230;2022-12-29T08:55:45;97401.63;;;11.74;71.12
8894;BME280;4483;48.622;9.230;2022-12-29T08:58:13;97395.78;;;11.71;70.89
8894;BME280;4483;48.622;9.230;2022-12-29T09:00:42;97400.88;;;11.72;70.98
8894;BME280;4483;48.622;9.230;2022-12-29T09:03:08;97398.28;;;11.72;70.81
8894;BME280;4483;48.622;9.230;2022-12-29T09:05:35;97405.94;;;11.74;70.62
8894;BME280;4483;48.622;9.230;2022-12-29T09:08:02;97412.97;;;11.72;70.85
8894;BME280;4483;48.622;9.230;2022-12-29T09:10:29;97417.97;;;11.75;70.86
8894;BME280;4483;48.622;9.230;2022-12-29T09:12:56;97406.72;;;11.76;70.79
8894;BME280;4483;48.622;9.230;2022-12-29T09:15:24;97424.56;;;11.80;70.55
8894;BME280;4483;48.622;9.230;2022-12-29T09:17:51;97428.25;;;11.92;69.69
8894;BME280;4483;48.622;9.230;2022-12-29T09:20:19;97436.72;;;11.94;69.73
8894;BME280;4483;48.622;9.230;2022-12-29T09:22:46;97440.66;;;12.01;69.22
8894;BME280;4483;48.622;9.230;2022-12-29T09:25:13;97432.31;;;11.96;69.21
8894;BME280;4483;48.622;9.230;2022-12-29T09:27:40;97433.56;;;11.89;68.98
8894;BME280;4483;48.622;9.230;2022-12-29T09:30:09;97445.91;;;11.99;69.42
8894;BME280;4483;48.622;9.230;2022-12-29T09:32:37;97445.75;;;12.18;68.51
8894;BME280;4483;48.622;9.230;2022-12-29T09:35:04;97450.44;;;12.27;68.13
8894;BME280;4483;48.622;9.230;2022-12-29T09:37:31;97439.88;;;12.32;67.59
8894;BME280;4483;48.622;9.230;2022-12-29T09:39:58;97443.22;;;12.34;67.67
8894;BME280;4483;48.622;9.230;2022-12-29T09:42:29;97442.94;;;12.38;68.34
8894;BME280;4483;48.622;9.230;2022-12-29T09:45:10;97443.88;;;12.37;67.95
8894;BME280;4483;48.622;9.230;2022-12-29T09:47:41;97445.97;;;12.46;68.10
8894;BME280;4483;48.622;9.230;2022-12-29T09:50:14;97438.78;;;12.51;68.40
8894;BME280;4483;48.622;9.230;2022-12-29T09:52:48;97447.94;;;12.57;68.47
8894;BME280;4483;48.622;9.230;2022-12-29T09:55:18;97436.44;;;12.62;68.41
8894;BME280;4483;48.622;9.230;2022-12-29T09:57:48;97431.19;;;12.64;68.14
8894;BME280;4483;48.622;9.230;2022-12-29T10:00:18;97431.84;;;12.67;68.24
8894;BME280;4483;48.622;9.230;2022-12-29T10:02:50;97425.03;;;12.66;68.83
8894;BME280;4483;48.622;9.230;2022-12-29T10:05:27;97426.69;;;12.67;68.75
8894;BME280;4483;48.622;9.230;2022-12-29T10:08:09;97420.03;;;12.63;68.82
8894;BME280;4483;48.622;9.230;2022-12-29T10:10:44;97420.69;;;12.51;68.71
8894;BME280;4483;48.622;9.230;2022-12-29T10:13:24;97435.88;;;12.57;69.13
8894;BME280;4483;48.622;9.230;2022-12-29T10:16:02;97426.38;;;12.58;69.33
8894;BME280;4483;48.622;9.230;2022-12-29T10:21:30;97420.03;;;12.48;69.73
8894;BME280;4483;48.622;9.230;2022-12-29T10:24:02;97424.88;;;12.54;70.05
8894;BME280;4483;48.622;9.230;2022-12-29T10:26:40;97428.63;;;12.48;69.65
8894;BME280;4483;48.622;9.230;2022-12-29T10:29:14;97439.38;;;12.41;70.12
8894;BME280;4483;48.622;9.230;2022-12-29T10:31:44;97453.22;;;12.40;70.21
8894;BME280;4483;48.622;9.230;2022-12-29T10:34:20;97446.13;;;12.43;70.79
8894;BME280;4483;48.622;9.230;2022-12-29T10:36:49;97447.97;;;12.41;70.99
8894;BME280;4483;48.622;9.230;2022-12-29T10:39:22;97429.72;;;12.44;70.81
8894;BME280;4483;48.622;9.230;2022-12-29T10:41:52;97432.38;;;12.43;70.75
8894;BME280;4483;48.622;9.230;2022-12-29T10:44:21;97431.53;;;12.42;70.95
8894;BME280;4483;48.622;9.230;2022-12-29T10:46:54;97431.03;;;12.51;71.11
8894;BME280;4483;48.622;9.230;2022-12-29T10:49:24;97433.53;;;12.53;70.55
8894;BME280;4483;48.622;9.230;2022-12-29T10:51:55;97430.72;;;12.57;70.06
8894;BME280;4483;48.622;9.230;2022-12-29T10:54:26;97425.88;;;12.67;70.45
8894;BME280;4483;48.622;9.230;2022-12-29T10:57:00;97432.22;;;12.61;70.18
8894;BME280;4483;48.622;9.230;2022-12-29T10:59:30;97428.88;;;12.59;70.23
8894;BME280;4483;48.622;9.230;2022-12-29T11:02:00;97431.19;;;12.64;70.44
8894;BME280;4483;48.622;9.230;2022-12-29T11:04:49;97452.03;;;12.61;70.61
8894;BME280;4483;48.622;9.230;2022-12-29T11:07:20;97436.53;;;12.61;70.13
8894;BME280;4483;48.622;9.230;2022-12-29T11:09:47;97437.88;;;12.68;70.67
8894;BME280;4483;48.622;9.230;2022-12-29T11:12:23;97432.47;;;12.72;70.90
8894;BME280;4483;48.622;9.230;2022-12-29T11:15:12;97435.13;;;12.71;70.48
8894;BME280;4483;48.622;9.230;2022-12-29T11:17:44;97422.13;;;12.72;70.59
8894;BME280;4483;48.622;9.230;2022-12-29T11:20:31;97437.03;;;12.83;71.08
8894;BME280;4483;48.622;9.230;2022-12-29T11:22:58;97442.38;;;12.80;71.48
8894;BME280;4483;48.622;9.230;2022-12-29T11:25:26;97433.69;;;12.81;71.43
8894;BME280;4483;48.622;9.230;2022-12-29T11:27:58;97452.19;;;12.89;71.34
8894;BME280;4483;48.622;9.230;2022-12-29T11:30:28;97445.91;;;12.93;71.68
8894;BME280;4483;48.622;9.230;2022-12-29T11:32:56;97447.09;;;12.87;71.69
8894;BME280;4483;48.622;9.230;2022-12-29T11:35:35;97440.97;;;12.74;71.90
8894;BME280;4483;48.622;9.230;2022-12-29T11:38:03;97457.38;;;12.73;73.07
8894;BME280;4483;48.622;9.230;2022-12-29T11:40:30;97461.88;;;12.70;73.64
8894;BME280;4483;48.622;9.230;2022-12-29T11:43:00;97458.53;;;12.68;74.42
8894;BME280;4483;48.622;9.230;2022-12-29T11:45:31;97453.53;;;12.80;76.08
8894;BME280;4483;48.622;9.230;2022-12-29T11:48:00;97440.50;;;12.82;77.11
8894;BME280;4483;48.622;9.230;2022-12-29T11:50:31;97449.50;;;13.06;76.66
8894;BME280;4483;48.622;9.230;2022-12-29T11:53:02;97437.97;;;13.27;77.23
8894;BME280;4483;48.622;9.230;2022-12-29T11:55:30;97447.81;;;13.21;77.10
8894;BME280;4483;48.622;9.230;2022-12-29T11:58:00;97441.00;;;13.04;76.85
8894;BME280;4483;48.622;9.230;2022-12-29T12:00:30;97445.66;;;12.97;78.49
8894;BME280;4483;48.622;9.230;2022-12-29T12:02:58;97435.84;;;12.88;78.74
8894;BME280;4483;48.622;9.230;2022-12-29T12:05:39;97442.78;;;12.72;78.74
8894;BME280;4483;48.622;9.230;2022-12-29T12:08:11;97437.53;;;12.58;79.72
8894;BME280;4483;48.622;9.230;2022-12-29T12:10:44;97432.53;;;12.55;80.43
8894;BME280;4483;48.622;9.230;2022-12-29T12:13:19;97438.47;;;12.57;80.49
8894;BME280;4483;48.622;9.230;2022-12-29T12:15:52;97431.03;;;12.51;81.33
8894;BME280;4483;48.622;9.230;2022-12-29T12:18:30;97439.06;;;12.47;81.23
8894;BME280;4483;48.622;9.230;2022-12-29T12:21:05;97442.94;;;12.38;82.26
8894;BME280;4483;48.622;9.230;2022-12-29T12:23:54;97442.69;;;12.27;82.88
8894;BME280;4483;48.622;9.230;2022-12-29T12:26:29;97444.09;;;12.17;82.75
8894;BME280;4483;48.622;9.230;2022-12-29T12:29:03;97442.69;;;12.11;83.87
8894;BME280;4483;48.622;9.230;2022-12-29T12:31:43;97444.34;;;12.12;84.38
8894;BME280;4483;48.622;9.230;2022-12-29T12:34:17;97434.88;;;12.44;84.97
8894;BME280;4483;48.622;9.230;2022-12-29T12:37:11;97434.00;;;13.36;82.45
8894;BME280;4483;48.622;9.230;2022-12-29T12:39:49;97418.31;;;14.23;80.20
8894;BME280;4483;48.622;9.230;2022-12-29T12:42:33;97435.44;;;14.40;78.45
8894;BME280;4483;48.622;9.230;2022-12-29T12:45:24;97426.75;;;14.41;77.59
8894;BME280;4483;48.622;9.230;2022-12-29T12:48:02;97428.59;;;14.10;76.94
8894;BME280;4483;48.622;9.230;2022-12-29T12:50:49;97428.03;;;13.77;77.80
8894;BME280;4483;48.622;9.230;2022-12-29T12:53:32;97428.84;;;13.50;78.63
8894;BME280;4483;48.622;9.230;2022-12-29T12:56:17;97429.00;;;13.33;79.12
8894;BME280;4483;48.622;9.230;2022-12-29T12:58:53;97428.78;;;13.22;80.09
8894;BME280;4483;48.622;9.230;2022-12-29T13:01:37;97410.94;;;13.17;80.27
8894;BME280;4483;48.622;9.230;2022-12-29T13:04:28;97409.28;;;13.00;80.88
8894;BME280;4483;48.622;9.230;2022-12-29T13:07:10;97409.66;;;12.94;82.13
8894;BME280;4483;48.622;9.230;2022-12-29T13:10:02;97403.97;;;12.88;83.75
8894;BME280;4483;48.622;9.230;2022-12-29T13:12:44;97403.38;;;13.14;83.57
8894;BME280;4483;48.622;9.230;2022-12-29T13:15:26;97397.91;;;13.19;83.66
8894;BME280;4483;48.622;9.230;2022-12-29T13:18:04;97399.41;;;13.23;83.37
8894;BME280;4483;48.622;9.230;2022-12-29T13:20:36;97407.53;;;13.17;83.25
8894;BME280;4483;48.622;9.230;2022-12-29T13:23:11;97409.06;;;13.05;83.94
8894;BME280;4483;48.622;9.230;2022-12-29T13:25:46;97402.16;;;12.90;84.62
8894;BME280;4483;48.622;9.230;2022-12-29T13:28:21;97398.72;;;12.89;84.59
8894;BME280;4483;48.622;9.230;2022-12-29T13:30:56;97400.50;;;12.73;84.99
8894;BME280;4483;48.622;9.230;2022-12-29T13:33:31;97398.44;;;12.64;85.78
8894;BME280;4483;48.622;9.230;2022-12-29T13:36:04;97400.78;;;12.53;86.92
8894;BME280;4483;48.622;9.230;2022-12-29T13:38:35;97402.03;;;12.46;87.16
8894;BME280;4483;48.622;9.230;2022-12-29T13:41:07;97399.78;;;12.40;87.18
8894;BME280;4483;48.622;9.230;2022-12-29T13:43:38;97403.88;;;12.44;87.51
8894;BME280;4483;48.622;9.230;2022-12-29T13:46:09;97398.00;;;12.72;87.12
8894;BME280;4483;48.622;9.230;2022-12-29T13:48:40;97396.34;;;13.00;86.44
8894;BME280;4483;48.622;9.230;2022-12-29T13:51:10;97392.47;;;13.09;85.75
8894;BME280;4483;48.622;9.230;2022-12-29T13:53:48;97386.25;;;13.11;85.65
8894;BME280;4483;48.622;9.230;2022-12-29T13:56:28;97380.50;;;13.22;85.04